sensor_id;sensor_type;location;lat;lon;timestamp;pressure;altitude;pressure_sealevel;temperature;humidity
13235;BME280;6683;48.506;9.050;2023-04-06T00:02:41;98372.09;;;3.45;50.24
13235;BME280;6683;48.506;9.050;2023-04-06T00:05:44;98371.97;;;3.47;49.97
13235;BME280;6683;48.506;9.050;2023-04-06T00:08:47;98375.25;;;3.49;50.62
13235;BME280;6683;48.506;9.050;2023-04-06T00:11:49;98368.09;;;3.51;50.55
13235;BME280;6683;48.506;9.050;2023-04-06T00:14:52;98367.41;;;3.49;50.57
13235;BME280;6683;48.506;9.050;2023-04-06T00:17:56;98366.31;;;3.51;50.34
13235;BME280;6683;48.506;9.050;2023-04-06T00:20:59;98361.25;;;3.50;50.64
13235;BME280;6683;48.506;9.050;2023-04-06T00:24:02;98361.41;;;3.48;50.73
13235;BME280;6683;48.506;9.050;2023-04-06T00:27:05;98359.88;;;3.46;50.50
13235;BME280;6683;48.506;9.050;2023-04-06T00:30:09;98355.75;;;3.43;50.53
13235;BME280;6683;48.506;9.050;2023-04-06T00:33:13;98361.94;;;3.42;50.99
13235;BME280;6683;48.506;9.050;2023-04-06T00:36:15;98357.16;;;3.38;51.25
13235;BME280;6683;48.506;9.050;2023-04-06T00:39:18;98353.44;;;3.31;50.96
13235;BME280;6683;48.506;9.050;2023-04-06T00:42:22;98352.19;;;3.25;51.04
13235;BME280;6683;48.506;9.050;2023-04-06T00:45:27;98349.31;;;3.18;51.40
13235;BME280;6683;48.506;9.050;2023-04-06T00:48:31;98344.63;;;3.12;51.29
13235;BME280;6683;48.506;9.050;2023-04-06T00:51:34;98348.75;;;3.05;51.42
13235;BME280;6683;48.506;9.050;2023-04-06T00:54:37;98359.47;;;3.02;51.02
13235;BME280;6683;48.506;9.050;2023-04-06T00:57:39;98354.66;;;2.98;51.54
13235;BME280;6683;48.506;9.050;2023-04-06T01:00:42;98354.06;;;2.94;51.05
13235;BME280;6683;48.506;9.050;2023-04-06T01:03:48;98356.13;;;2.91;51.56
13235;BME280;6683;48.506;9.050;2023-04-06T01:06:51;98348.59;;;2.88;51.41
13235;BME280;6683;48.506;9.050;2023-04-06T01:09:54;98348.03;;;2.84;51.51
13235;BME280;6683;48.506;9.050;2023-04-06T01:12:57;98347.63;;;2.79;51.56
13235;BME280;6683;48.506;9.050;2023-04-06T01:16:00;98339.22;;;2.76;51.56
13235;BME280;6683;48.506;9.050;2023-04-06T01:19:09;98340.44;;;2.72;51.54
13235;BME280;6683;48.506;9.050;2023-04-06T01:22:16;98344.44;;;2.66;51.71
13235;BME280;6683;48.506;9.050;2023-04-06T01:25:19;98336.84;;;2.63;51.67
13235;BME280;6683;48.506;9.050;2023-04-06T01:28:22;98333.69;;;2.60;52.07
13235;BME280;6683;48.506;9.050;2023-04-06T01:31:25;98328.06;;;2.55;51.71
13235;BME280;6683;48.506;9.050;2023-04-06T01:34:28;98326.69;;;2.51;51.74
13235;BME280;6683;48.506;9.050;2023-04-06T01:37:32;98332.31;;;2.46;51.84
13235;BME280;6683;48.506;9.050;2023-04-06T01:40:35;98329.25;;;2.41;51.92
13235;BME280;6683;48.506;9.050;2023-04-06T01:43:38;98332.13;;;2.38;52.14
13235;BME280;6683;48.506;9.050;2023-04-06T01:46:41;98327.34;;;2.33;52.01
13235;BME280;6683;48.506;9.050;2023-04-06T01:49:43;98321.53;;;2.30;52.50
13235;BME280;6683;48.506;9.050;2023-04-06T01:52:48;98326.06;;;2.28;52.34
13235;BME280;6683;48.506;9.050;2023-04-06T01:55:51;98334.16;;;2.25;52.22
13235;BME280;6683;48.506;9.050;2023-04-06T01:58:53;98319.59;;;2.22;52.52
13235;BME280;6683;48.506;9.050;2023-04-06T02:01:56;98320.00;;;2.18;52.41
13235;BME280;6683;48.506;9.050;2023-04-06T02:04:59;98327.25;;;2.14;52.82
13235;BME280;6683;48.506;9.050;2023-04-06T02:08:04;98334.38;;;2.12;52.54
13235;BME280;6683;48.506;9.050;2023-04-06T02:11:07;98328.56;;;2.09;52.46
13235;BME280;6683;48.506;9.050;2023-04-06T02:14:09;98324.47;;;2.06;52.69
13235;BME280;6683;48.506;9.050;2023-04-06T02:17:12;98327.19;;;2.05;52.75
13235;BME280;6683;48.506;9.050;2023-04-06T02:20:15;98326.38;;;2.04;52.75
13235;BME280;6683;48.506;9.050;2023-04-06T02:23:19;98323.09;;;2.02;52.76
13235;BME280;6683;48.506;9.050;2023-04-06T02:26:22;98319.91;;;1.99;52.78
13235;BME280;6683;48.506;9.050;2023-04-06T02:29:25;98314.84;;;1.97;52.96
13235;BME280;6683;48.506;9.050;2023-04-06T02:32:27;98323.03;;;1.93;53.03
13235;BME280;6683;48.506;9.050;2023-04-06T02:35:31;98320.56;;;1.91;53.09
13235;BME280;6683;48.506;9.050;2023-04-06T02:38:35;98317.28;;;1.89;53.08
13235;BME280;6683;48.506;9.050;2023-04-06T02:41:38;98318.34;;;1.87;52.99
13235;BME280;6683;48.506;9.050;2023-04-06T02:44:41;98325.69;;;1.82;53.00
13235;BME280;6683;48.506;9.050;2023-04-06T02:47:43;98319.09;;;1.78;53.03
13235;BME280;6683;48.506;9.050;2023-04-06T02:50:46;98318.53;;;1.74;53.28
13235;BME280;6683;48.506;9.050;2023-04-06T02:53:50;98318.00;;;1.71;53.28
13235;BME280;6683;48.506;9.050;2023-04-06T02:56:53;98322.50;;;1.69;53.22
13235;BME280;6683;48.506;9.050;2023-04-06T02:59:56;98314.94;;;1.66;53.38
13235;BME280;6683;48.506;9.050;2023-04-06T03:02:59;98312.72;;;1.61;53.19
13235;BME280;6683;48.506;9.050;2023-04-06T03:06:02;98314.19;;;1.54;53.32
13235;BME280;6683;48.506;9.050;2023-04-06T03:09:06;98318.81;;;1.50;53.32
13235;BME280;6683;48.506;9.050;2023-04-06T03:12:09;98313.03;;;1.47;53.31
13235;BME280;6683;48.506;9.050;2023-04-06T03:15:12;98319.22;;;1.46;53.49
13235;BME280;6683;48.506;9.050;2023-04-06T03:18:15;98321.81;;;1.46;53.39
13235;BME280;6683;48.506;9.050;2023-04-06T03:21:18;98329.59;;;1.46;53.62
13235;BME280;6683;48.506;9.050;2023-04-06T03:24:22;98325.22;;;1.46;53.80
13235;BME280;6683;48.506;9.050;2023-04-06T03:27:25;98327.72;;;1.48;53.98
13235;BME280;6683;48.506;9.050;2023-04-06T03:30:28;98320.69;;;1.48;53.93
13235;BME280;6683;48.506;9.050;2023-04-06T03:33:31;98323.44;;;1.47;53.96
13235;BME280;6683;48.506;9.050;2023-04-06T03:36:34;98329.59;;;1.46;53.63
13235;BME280;6683;48.506;9.050;2023-04-06T03:39:39;98336.13;;;1.40;53.89
13235;BME280;6683;48.506;9.050;2023-04-06T03:42:42;98335.56;;;1.37;53.57
13235;BME280;6683;48.506;9.050;2023-04-06T03:45:44;98338.53;;;1.32;53.87
13235;BME280;6683;48.506;9.050;2023-04-06T03:48:49;98340.66;;;1.27;53.94
13235;BME280;6683;48.506;9.050;2023-04-06T03:51:52;98339.41;;;1.22;53.83
13235;BME280;6683;48.506;9.050;2023-04-06T03:54:56;98338.84;;;1.18;53.52
13235;BME280;6683;48.506;9.050;2023-04-06T03:57:59;98334.94;;;1.13;53.87
13235;BME280;6683;48.506;9.050;2023-04-06T04:01:01;98335.19;;;1.10;53.92
13235;BME280;6683;48.506;9.050;2023-04-06T04:04:05;98338.03;;;1.07;54.03
13235;BME280;6683;48.506;9.050;2023-04-06T04:07:07;98335.56;;;1.05;54.01
13235;BME280;6683;48.506;9.050;2023-04-06T04:10:11;98346.09;;;1.04;54.37
13235;BME280;6683;48.506;9.050;2023-04-06T04:13:14;98347.16;;;1.01;54.18
13235;BME280;6683;48.506;9.050;2023-04-06T04:16:17;98342.91;;;1.00;54.30
13235;BME280;6683;48.506;9.050;2023-04-06T04:19:19;98342.09;;;1.00;54.32
13235;BME280;6683;48.506;9.050;2023-04-06T04:22:22;98347.53;;;0.97;54.21
13235;BME280;6683;48.506;9.050;2023-04-06T04:25:26;98352.84;;;0.95;54.70
13235;BME280;6683;48.506;9.050;2023-04-06T04:28:29;98345.06;;;0.95;54.42
13235;BME280;6683;48.506;9.050;2023-04-06T04:31:32;98354.63;;;0.95;54.42
13235;BME280;6683;48.506;9.050;2023-04-06T04:34:34;98355.59;;;0.94;54.33
13235;BME280;6683;48.506;9.050;2023-04-06T04:37:37;98356.38;;;0.94;54.53
13235;BME280;6683;48.506;9.050;2023-04-06T04:40:42;98354.88;;;0.92;54.71
13235;BME280;6683;48.506;9.050;2023-04-06T04:43:45;98354.88;;;0.92;54.55
13235;BME280;6683;48.506;9.050;2023-04-06T04:46:48;98357.56;;;0.90;54.58
13235;BME280;6683;48.506;9.050;2023-04-06T04:49:51;98358.41;;;0.91;54.91
13235;BME280;6683;48.506;9.050;2023-04-06T04:52:53;98356.78;;;0.90;55.05
13235;BME280;6683;48.506;9.050;2023-04-06T04:55:58;98361.84;;;0.91;55.21
13235;BME280;6683;48.506;9.050;2023-04-06T04:59:00;98361.97;;;0.90;54.98
13235;BME280;6683;48.506;9.050;2023-04-06T05:02:03;98371.41;;;0.91;54.89
13235;BME280;6683;48.506;9.050;2023-04-06T05:05:06;98369.63;;;0.91;54.97
13235;BME280;6683;48.506;9.050;2023-04-06T05:08:09;98368.81;;;0.91;55.25
13235;BME280;6683;48.506;9.050;2023-04-06T05:11:13;98376.59;;;0.91;55.14
13235;BME280;6683;48.506;9.050;2023-04-06T05:14:15;98379.19;;;0.91;55.08
13235;BME280;6683;48.506;9.050;2023-04-06T05:17:18;98382.63;;;0.91;55.23
13235;BME280;6683;48.506;9.050;2023-04-06T05:20:20;98380.72;;;0.93;55.21
13235;BME280;6683;48.506;9.050;2023-04-06T05:23:23;98381.44;;;0.95;55.22
13235;BME280;6683;48.506;9.050;2023-04-06T05:26:28;98387.19;;;0.99;55.43
13235;BME280;6683;48.506;9.050;2023-04-06T05:29:31;98378.13;;;1.04;55.13
13235;BME280;6683;48.506;9.050;2023-04-06T05:32:33;98381.03;;;1.11;55.40
13235;BME280;6683;48.506;9.050;2023-04-06T05:35:36;98377.81;;;1.18;55.50
13235;BME280;6683;48.506;9.050;2023-04-06T05:38:39;98388.56;;;1.25;55.39
13235;BME280;6683;48.506;9.050;2023-04-06T05:41:43;98391.38;;;1.33;55.69
13235;BME280;6683;48.506;9.050;2023-04-06T05:44:46;98395.78;;;1.42;55.42
13235;BME280;6683;48.506;9.050;2023-04-06T05:47:51;98395.88;;;1.51;55.67
13235;BME280;6683;48.506;9.050;2023-04-06T05:50:54;98392.66;;;1.59;55.71
13235;BME280;6683;48.506;9.050;2023-04-06T05:53:57;98399.56;;;1.70;55.96
13235;BME280;6683;48.506;9.050;2023-04-06T05:57:02;98399.53;;;1.81;55.89
13235;BME280;6683;48.506;9.050;2023-04-06T06:00:06;98400.16;;;1.94;55.95
13235;BME280;6683;48.506;9.050;2023-04-06T06:03:10;98397.38;;;2.06;55.89
13235;BME280;6683;48.506;9.050;2023-04-06T06:06:13;98396.19;;;2.20;55.85
13235;BME280;6683;48.506;9.050;2023-04-06T06:09:16;98404.50;;;2.34;56.09
13235;BME280;6683;48.506;9.050;2023-04-06T06:12:21;98404.81;;;2.51;55.75
13235;BME280;6683;48.506;9.050;2023-04-06T06:15:23;98408.72;;;2.66;56.24
13235;BME280;6683;48.506;9.050;2023-04-06T06:18:27;98402.91;;;2.83;55.72
13235;BME280;6683;48.506;9.050;2023-04-06T06:21:30;98406.25;;;3.04;56.20
13235;BME280;6683;48.506;9.050;2023-04-06T06:24:33;98399.84;;;3.27;55.97
13235;BME280;6683;48.506;9.050;2023-04-06T06:27:37;98394.09;;;3.52;55.95
13235;BME280;6683;48.506;9.050;2023-04-06T06:30:40;98397.75;;;3.78;55.93
13235;BME280;6683;48.506;9.050;2023-04-06T06:33:43;98395.81;;;3.99;55.67
13235;BME280;6683;48.506;9.050;2023-04-06T06:36:45;98399.63;;;4.15;55.39
13235;BME280;6683;48.506;9.050;2023-04-06T06:39:48;98389.69;;;4.28;55.30
13235;BME280;6683;48.506;9.050;2023-04-06T06:42:52;98395.72;;;4.38;54.65
13235;BME280;6683;48.506;9.050;2023-04-06T06:45:54;98399.94;;;4.48;54.89
13235;BME280;6683;48.506;9.050;2023-04-06T06:48:58;98403.03;;;4.61;54.65
13235;BME280;6683;48.506;9.050;2023-04-06T06:52:01;98398.25;;;4.84;55.12
13235;BME280;6683;48.506;9.050;2023-04-06T06:55:04;98394.44;;;5.06;54.53
13235;BME280;6683;48.506;9.050;2023-04-06T06:58:08;98397.09;;;5.23;54.99
13235;BME280;6683;48.506;9.050;2023-04-06T07:01:10;98392.59;;;5.33;54.57
13235;BME280;6683;48.506;9.050;2023-04-06T07:04:14;98393.63;;;5.40;54.72
13235;BME280;6683;48.506;9.050;2023-04-06T07:07:16;98396.88;;;5.52;54.70
13235;BME280;6683;48.506;9.050;2023-04-06T07:10:19;98404.50;;;5.63;54.46
13235;BME280;6683;48.506;9.050;2023-04-06T07:13:23;98403.59;;;5.72;54.66
13235;BME280;6683;48.506;9.050;2023-04-06T07:16:27;98402.41;;;5.84;54.48
13235;BME280;6683;48.506;9.050;2023-04-06T07:19:30;98394.69;;;6.00;54.29
13235;BME280;6683;48.506;9.050;2023-04-06T07:22:33;98398.75;;;6.20;54.67
13235;BME280;6683;48.506;9.050;2023-04-06T07:25:36;98401.16;;;6.39;54.87
13235;BME280;6683;48.506;9.050;2023-04-06T07:28:41;98401.28;;;6.64;54.80
13235;BME280;6683;48.506;9.050;2023-04-06T07:31:43;98392.06;;;6.93;54.49
13235;BME280;6683;48.506;9.050;2023-04-06T07:34:46;98392.97;;;7.26;54.94
13235;BME280;6683;48.506;9.050;2023-04-06T07:37:49;98389.59;;;7.66;54.72
13235;BME280;6683;48.506;9.050;2023-04-06T07:40:52;98386.63;;;8.01;54.33
13235;BME280;6683;48.506;9.050;2023-04-06T07:43:56;98391.91;;;8.33;54.24
13235;BME280;6683;48.506;9.050;2023-04-06T07:46:59;98384.59;;;8.67;54.24
13235;BME280;6683;48.506;9.050;2023-04-06T07:50:01;98383.47;;;9.01;53.72
13235;BME280;6683;48.506;9.050;2023-04-06T07:53:04;98380.16;;;9.29;53.63
13235;BME280;6683;48.506;9.050;2023-04-06T07:56:07;98380.97;;;9.60;53.31
13235;BME280;6683;48.506;9.050;2023-04-06T07:59:11;98375.66;;;9.83;53.23
13235;BME280;6683;48.506;9.050;2023-04-06T08:02:14;98372.72;;;10.01;53.11
13235;BME280;6683;48.506;9.050;2023-04-06T08:05:17;98369.16;;;10.16;52.55
13235;BME280;6683;48.506;9.050;2023-04-06T08:08:20;98371.34;;;10.27;52.50
13235;BME280;6683;48.506;9.050;2023-04-06T08:11:23;98366.53;;;10.31;51.56
13235;BME280;6683;48.506;9.050;2023-04-06T08:14:29;98366.06;;;10.27;51.57
13235;BME280;6683;48.506;9.050;2023-04-06T08:17:32;98367.44;;;10.23;51.55
13235;BME280;6683;48.506;9.050;2023-04-06T08:20:36;98365.72;;;10.30;51.03
13235;BME280;6683;48.506;9.050;2023-04-06T08:23:39;98362.00;;;10.39;50.87
13235;BME280;6683;48.506;9.050;2023-04-06T08:26:42;98361.91;;;10.48;50.80
13235;BME280;6683;48.506;9.050;2023-04-06T08:29:46;98353.63;;;10.65;50.34
13235;BME280;6683;48.506;9.050;2023-04-06T08:32:49;98357.72;;;10.82;50.06
13235;BME280;6683;48.506;9.050;2023-04-06T08:35:52;98346.38;;;11.03;49.94
13235;BME280;6683;48.506;9.050;2023-04-06T08:38:55;98347.06;;;11.26;49.65
13235;BME280;6683;48.506;9.050;2023-04-06T08:41:58;98345.50;;;11.53;49.46
13235;BME280;6683;48.506;9.050;2023-04-06T08:45:03;98344.16;;;11.78;48.96
13235;BME280;6683;48.506;9.050;2023-04-06T08:48:07;98341.75;;;12.11;48.85
13235;BME280;6683;48.506;9.050;2023-04-06T08:51:11;98336.88;;;12.42;48.06
13235;BME280;6683;48.506;9.050;2023-04-06T08:54:14;98328.91;;;12.69;47.83
13235;BME280;6683;48.506;9.050;2023-04-06T08:57:17;98329.59;;;12.84;47.51
13235;BME280;6683;48.506;9.050;2023-04-06T09:00:22;98322.56;;;13.05;47.66
13235;BME280;6683;48.506;9.050;2023-04-06T09:03:26;98315.69;;;13.30;47.47
13235;BME280;6683;48.506;9.050;2023-04-06T09:06:30;98312.06;;;13.57;47.13
13235;BME280;6683;48.506;9.050;2023-04-06T09:09:33;98310.03;;;13.92;46.90
13235;BME280;6683;48.506;9.050;2023-04-06T09:12:35;98304.50;;;14.26;46.55
13235;BME280;6683;48.506;9.050;2023-04-06T09:15:40;98304.66;;;14.57;46.23
13235;BME280;6683;48.506;9.050;2023-04-06T09:18:43;98305.59;;;14.89;45.66
13235;BME280;6683;48.506;9.050;2023-04-06T09:21:45;98304.28;;;15.04;44.89
13235;BME280;6683;48.506;9.050;2023-04-06T09:24:51;98303.59;;;15.22;44.62
13235;BME280;6683;48.506;9.050;2023-04-06T09:28:02;98308.09;;;15.59;44.39
13235;BME280;6683;48.506;9.050;2023-04-06T09:31:06;98307.06;;;15.85;43.67
13235;BME280;6683;48.506;9.050;2023-04-06T09:34:21;98299.81;;;16.17;43.24
13235;BME280;6683;48.506;9.050;2023-04-06T09:37:27;98293.34;;;16.49;42.44
13235;BME280;6683;48.506;9.050;2023-04-06T09:40:30;98287.66;;;16.82;41.52
13235;BME280;6683;48.506;9.050;2023-04-06T09:43:33;98284.00;;;17.12;40.41
13235;BME280;6683;48.506;9.050;2023-04-06T09:46:38;98279.66;;;17.59;39.49
13235;BME280;6683;48.506;9.050;2023-04-06T09:49:41;98274.38;;;17.94;38.29
13235;BME280;6683;48.506;9.050;2023-04-06T09:52:49;98279.16;;;18.26;37.91
13235;BME280;6683;48.506;9.050;2023-04-06T09:55:57;98272.16;;;18.37;37.62
13235;BME280;6683;48.506;9.050;2023-04-06T09:59:07;98267.97;;;18.29;37.06
13235;BME280;6683;48.506;9.050;2023-04-06T10:02:22;98250.78;;;18.49;37.16
13235;BME280;6683;48.506;9.050;2023-04-06T10:05:33;98249.28;;;18.92;36.10
13235;BME280;6683;48.506;9.050;2023-04-06T10:08:41;98247.00;;;19.12;35.70
13235;BME280;6683;48.506;9.050;2023-04-06T10:11:46;98255.84;;;19.41;35.51
13235;BME280;6683;48.506;9.050;2023-04-06T10:14:50;98249.63;;;19.85;35.26
13235;BME280;6683;48.506;9.050;2023-04-06T10:17:54;98241.16;;;20.27;34.33
13235;BME280;6683;48.506;9.050;2023-04-06T10:21:04;98239.31;;;20.70;34.26
13235;BME280;6683;48.506;9.050;2023-04-06T10:24:09;98239.66;;;21.22;33.18
13235;BME280;6683;48.506;9.050;2023-04-06T10:27:13;98233.03;;;21.57;32.36
13235;BME280;6683;48.506;9.050;2023-04-06T10:30:16;98230.75;;;22.07;31.47
13235;BME280;6683;48.506;9.050;2023-04-06T10:33:20;98222.66;;;22.54;30.86
13235;BME280;6683;48.506;9.050;2023-04-06T10:36:26;98223.63;;;22.79;30.47
13235;BME280;6683;48.506;9.050;2023-04-06T10:39:29;98227.75;;;23.07;30.17
13235;BME280;6683;48.506;9.050;2023-04-06T10:42:37;98231.34;;;23.53;29.70
13235;BME280;6683;48.506;9.050;2023-04-06T10:45:40;98220.00;;;23.91;29.53
13235;BME280;6683;48.506;9.050;2023-04-06T10:48:45;98215.66;;;24.30;28.43
13235;BME280;6683;48.506;9.050;2023-04-06T10:51:52;98212.94;;;24.35;27.80
13235;BME280;6683;48.506;9.050;2023-04-06T10:54:56;98212.91;;;24.45;27.82
13235;BME280;6683;48.506;9.050;2023-04-06T10:57:58;98210.13;;;24.71;27.84
13235;BME280;6683;48.506;9.050;2023-04-06T11:01:01;98205.75;;;24.90;27.70
13235;BME280;6683;48.506;9.050;2023-04-06T11:04:05;98212.78;;;24.91;28.06
13235;BME280;6683;48.506;9.050;2023-04-06T11:07:10;98210.59;;;24.93;27.59
13235;BME280;6683;48.506;9.050;2023-04-06T11:10:21;98211.16;;;24.90;27.01
13235;BME280;6683;48.506;9.050;2023-04-06T11:13:24;98202.78;;;24.86;27.16
13235;BME280;6683;48.506;9.050;2023-04-06T11:16:28;98203.72;;;25.10;27.14
13235;BME280;6683;48.506;9.050;2023-04-06T11:19:34;98204.88;;;25.43;26.87
13235;BME280;6683;48.506;9.050;2023-04-06T11:22:36;98194.69;;;25.97;26.50
13235;BME280;6683;48.506;9.050;2023-04-06T11:25:51;98201.09;;;26.06;26.10
13235;BME280;6683;48.506;9.050;2023-04-06T11:28:54;98196.13;;;26.19;25.95
13235;BME280;6683;48.506;9.050;2023-04-06T11:32:00;98190.09;;;26.50;25.48
13235;BME280;6683;48.506;9.050;2023-04-06T11:35:05;98176.41;;;26.84;25.08
13235;BME280;6683;48.506;9.050;2023-04-06T11:38:08;98177.59;;;27.15;25.38
13235;BME280;6683;48.506;9.050;2023-04-06T11:41:11;98172.31;;;27.24;24.62
13235;BME280;6683;48.506;9.050;2023-04-06T11:44:13;98175.44;;;27.31;24.74
13235;BME280;6683;48.506;9.050;2023-04-06T11:47:15;98176.38;;;27.45;24.68
13235;BME280;6683;48.506;9.050;2023-04-06T11:50:19;98164.09;;;27.47;23.85
13235;BME280;6683;48.506;9.050;2023-04-06T11:53:22;98155.38;;;27.32;23.43
13235;BME280;6683;48.506;9.050;2023-04-06T11:56:28;98157.75;;;27.38;23.21
13235;BME280;6683;48.506;9.050;2023-04-06T11:59:31;98164.78;;;27.21;23.54
13235;BME280;6683;48.506;9.050;2023-04-06T12:02:34;98151.16;;;27.07;23.44
13235;BME280;6683;48.506;9.050;2023-04-06T12:05:38;98146.34;;;26.62;23.31
13235;BME280;6683;48.506;9.050;2023-04-06T12:08:41;98141.78;;;26.39;23.80
13235;BME280;6683;48.506;9.050;2023-04-06T12:11:44;98151.28;;;26.12;23.46
13235;BME280;6683;48.506;9.050;2023-04-06T12:14:46;98146.75;;;26.03;23.55
13235;BME280;6683;48.506;9.050;2023-04-06T12:17:49;98139.34;;;25.85;23.29
13235;BME280;6683;48.506;9.050;2023-04-06T12:20:53;98141.41;;;25.69;23.20
13235;BME280;6683;48.506;9.050;2023-04-06T12:23:56;98135.84;;;25.56;23.48
13235;BME280;6683;48.506;9.050;2023-04-06T12:26:59;98130.75;;;25.54;23.31
13235;BME280;6683;48.506;9.050;2023-04-06T12:30:03;98126.78;;;25.42;23.30
13235;BME280;6683;48.506;9.050;2023-04-06T12:33:06;98131.28;;;25.17;23.48
13235;BME280;6683;48.506;9.050;2023-04-06T12:36:13;98127.63;;;24.98;23.25
13235;BME280;6683;48.506;9.050;2023-04-06T12:39:16;98130.38;;;24.93;23.61
13235;BME280;6683;48.506;9.050;2023-04-06T12:42:19;98126.22;;;25.06;23.44
13235;BME280;6683;48.506;9.050;2023-04-06T12:45:22;98115.31;;;25.21;23.29
13235;BME280;6683;48.506;9.050;2023-04-06T12:48:24;98119.16;;;25.15;23.12
13235;BME280;6683;48.506;9.050;2023-04-06T12:51:29;98119.53;;;24.98;22.97
13235;BME280;6683;48.506;9.050;2023-04-06T12:54:33;98123.84;;;24.50;23.23
13235;BME280;6683;48.506;9.050;2023-04-06T12:57:35;98116.78;;;23.70;23.95
13235;BME280;6683;48.506;9.050;2023-04-06T13:00:38;98119.19;;;22.81;24.09
13235;BME280;6683;48.506;9.050;2023-04-06T13:03:41;98113.53;;;22.06;24.36
13235;BME280;6683;48.506;9.050;2023-04-06T13:06:45;98118.50;;;21.45;24.54
13235;BME280;6683;48.506;9.050;2023-04-06T13:09:48;98112.47;;;21.02;24.81
13235;BME280;6683;48.506;9.050;2023-04-06T13:12:51;98108.47;;;20.51;24.79
13235;BME280;6683;48.506;9.050;2023-04-06T13:16:01;98106.09;;;20.11;25.26
13235;BME280;6683;48.506;9.050;2023-04-06T13:19:04;98107.56;;;19.80;25.64
13235;BME280;6683;48.506;9.050;2023-04-06T13:22:08;98110.28;;;19.64;25.72
13235;BME280;6683;48.506;9.050;2023-04-06T13:25:11;98106.91;;;19.52;25.98
13235;BME280;6683;48.506;9.050;2023-04-06T13:28:14;98103.91;;;19.48;26.11
13235;BME280;6683;48.506;9.050;2023-04-06T13:31:16;98110.00;;;19.44;26.12
13235;BME280;6683;48.506;9.050;2023-04-06T13:34:19;98104.56;;;19.39;25.99
13235;BME280;6683;48.506;9.050;2023-04-06T13:37:23;98102.59;;;19.34;25.91
13235;BME280;6683;48.506;9.050;2023-04-06T13:40:26;98095.53;;;19.28;25.97
13235;BME280;6683;48.506;9.050;2023-04-06T13:43:29;98096.03;;;19.25;25.98
13235;BME280;6683;48.506;9.050;2023-04-06T13:46:32;98086.78;;;19.16;26.17
13235;BME280;6683;48.506;9.050;2023-04-06T13:49:34;98092.53;;;19.08;25.99
13235;BME280;6683;48.506;9.050;2023-04-06T13:52:39;98087.03;;;18.98;26.40
13235;BME280;6683;48.506;9.050;2023-04-06T13:55:41;98087.19;;;18.91;26.45
13235;BME280;6683;48.506;9.050;2023-04-06T13:58:43;98089.13;;;18.79;26.42
13235;BME280;6683;48.506;9.050;2023-04-06T14:01:47;98078.88;;;18.76;26.46
13235;BME280;6683;48.506;9.050;2023-04-06T14:04:49;98086.59;;;18.73;26.49
13235;BME280;6683;48.506;9.050;2023-04-06T14:07:53;98081.13;;;18.68;26.67
13235;BME280;6683;48.506;9.050;2023-04-06T14:10:56;98075.88;;;18.56;26.73
13235;BME280;6683;48.506;9.050;2023-04-06T14:13:59;98083.31;;;18.54;26.88
13235;BME280;6683;48.506;9.050;2023-04-06T14:17:02;98082.81;;;18.57;26.85
13235;BME280;6683;48.506;9.050;2023-04-06T14:20:06;98070.03;;;18.59;26.82
13235;BME280;6683;48.506;9.050;2023-04-06T14:23:16;98071.16;;;18.63;26.69
13235;BME280;6683;48.506;9.050;2023-04-06T14:26:18;98071.66;;;18.60;26.90
13235;BME280;6683;48.506;9.050;2023-04-06T14:29:21;98072.38;;;18.56;27.01
13235;BME280;6683;48.506;9.050;2023-04-06T14:32:23;98068.81;;;18.50;27.23
13235;BME280;6683;48.506;9.050;2023-04-06T14:35:26;98072.88;;;18.41;27.31
13235;BME280;6683;48.506;9.050;2023-04-06T14:38:31;98068.63;;;18.28;27.25
13235;BME280;6683;48.506;9.050;2023-04-06T14:41:34;98059.84;;;18.16;27.56
13235;BME280;6683;48.506;9.050;2023-04-06T14:44:37;98055.22;;;18.12;27.75
13235;BME280;6683;48.506;9.050;2023-04-06T14:47:43;98061.75;;;18.04;27.59
13235;BME280;6683;48.506;9.050;2023-04-06T14:50:52;98057.25;;;17.93;27.96
13235;BME280;6683;48.506;9.050;2023-04-06T14:53:57;98055.84;;;17.91;27.90
13235;BME280;6683;48.506;9.050;2023-04-06T14:56:59;98054.72;;;17.87;27.96
13235;BME280;6683;48.506;9.050;2023-04-06T15:00:03;98056.31;;;17.88;28.35
13235;BME280;6683;48.506;9.050;2023-04-06T15:03:08;98047.16;;;17.84;28.31
13235;BME280;6683;48.506;9.050;2023-04-06T15:06:13;98052.16;;;17.80;28.48
13235;BME280;6683;48.506;9.050;2023-04-06T15:09:18;98051.84;;;17.77;28.64
13235;BME280;6683;48.506;9.050;2023-04-06T15:12:20;98049.88;;;17.72;28.45
13235;BME280;6683;48.506;9.050;2023-04-06T15:15:23;98045.22;;;17.68;28.60
13235;BME280;6683;48.506;9.050;2023-04-06T15:18:26;98039.06;;;17.67;28.79
13235;BME280;6683;48.506;9.050;2023-04-06T15:21:28;98049.75;;;17.67;28.66
13235;BME280;6683;48.506;9.050;2023-04-06T15:24:33;98047.31;;;17.66;28.86
13235;BME280;6683;48.506;9.050;2023-04-06T15:27:36;98044.97;;;17.69;28.84
13235;BME280;6683;48.506;9.050;2023-04-06T15:30:38;98046.63;;;17.70;29.01
13235;BME280;6683;48.506;9.050;2023-04-06T15:33:41;98046.13;;;17.73;29.00
13235;BME280;6683;48.506;9.050;2023-04-06T15:36:44;98044.28;;;17.74;29.34
13235;BME280;6683;48.506;9.050;2023-04-06T15:39:48;98044.66;;;17.66;29.10
13235;BME280;6683;48.506;9.050;2023-04-06T15:42:51;98040.50;;;17.58;29.38
13235;BME280;6683;48.506;9.050;2023-04-06T15:45:54;98049.44;;;17.52;29.47
13235;BME280;6683;48.506;9.050;2023-04-06T15:48:57;98041.03;;;17.48;29.48
13235;BME280;6683;48.506;9.050;2023-04-06T15:52:00;98044.53;;;17.49;29.54
13235;BME280;6683;48.506;9.050;2023-04-06T15:55:06;98042.31;;;17.46;29.57
13235;BME280;6683;48.506;9.050;2023-04-06T15:58:08;98038.84;;;17.45;29.47
13235;BME280;6683;48.506;9.050;2023-04-06T16:01:12;98040.69;;;17.45;29.47
13235;BME280;6683;48.506;9.050;2023-04-06T16:04:15;98043.03;;;17.41;29.61
13235;BME280;6683;48.506;9.050;2023-04-06T16:07:18;98040.56;;;17.40;29.67
13235;BME280;6683;48.506;9.050;2023-04-06T16:10:22;98038.63;;;17.35;29.68
13235;BME280;6683;48.506;9.050;2023-04-06T16:13:24;98048.50;;;17.35;29.81
13235;BME280;6683;48.506;9.050;2023-04-06T16:16:27;98040.72;;;17.33;29.80
13235;BME280;6683;48.506;9.050;2023-04-06T16:19:30;98046.28;;;17.32;29.70
13235;BME280;6683;48.506;9.050;2023-04-06T16:22:33;98051.28;;;17.28;29.94
13235;BME280;6683;48.506;9.050;2023-04-06T16:25:38;98039.44;;;17.24;29.79
13235;BME280;6683;48.506;9.050;2023-04-06T16:28:40;98051.25;;;17.17;30.11
13235;BME280;6683;48.506;9.050;2023-04-06T16:31:42;98053.47;;;17.08;30.05
13235;BME280;6683;48.506;9.050;2023-04-06T16:34:47;98051.13;;;17.00;30.06